Time;durP1;ratioP1;P1;durP2;ratioP2;P2;SDS_P1;SDS_P2;PMS_P1;PMS_P2;Temp;Humidity;BMP_temperature;BMP_pressure;BME280_temperature;BME280_humidity;BME280_pressure;Samples;Min_cycle;Max_cycle;Signal;HPM_P1;HPM_P2
2021/06/13 00:01:33;;;;;;;4.38;2.15;;;;;;;12.42;73.17;93471.97;5071067;28;20114;-39
2021/06/13 00:03:59;;;;;;;2.15;1.65;;;;;;;12.33;73.14;93471.81;5072084;28;20020;-38
2021/06/13 00:06:25;;;;;;;1.60;1.50;;;;;;;12.33;72.56;93469.06;5091774;28;20028;-42
2021/06/13 00:08:50;;;;;;;1.52;1.42;;;;;;;12.33;72.93;93469.06;5091626;28;20492;-42
2021/06/13 00:11:16;;;;;;;2.15;1.90;;;;;;;12.35;73.47;93475.50;5086454;28;20028;-43
2021/06/13 00:13:42;;;;;;;2.92;1.73;;;;;;;12.19;73.30;93471.34;5072317;28;20025;-41
2021/06/13 00:16:08;;;;;;;4.28;1.88;;;;;;;12.09;73.16;93468.41;5084327;28;20063;-41
2021/06/13 00:18:34;;;;;;;2.25;1.60;;;;;;;12.30;72.88;93470.91;5092843;28;20035;-42
2021/06/13 00:21:00;;;;;;;1.45;1.35;;;;;;;12.27;72.84;93471.28;5091259;28;20637;-43
2021/06/13 00:23:25;;;;;;;1.45;1.35;;;;;;;12.14;72.64;93461.19;5092495;28;20059;-40
2021/06/13 00:25:52;;;;;;;1.75;1.38;;;;;;;12.16;71.82;93464.88;5092085;28;20070;-41
2021/06/13 00:28:18;;;;;;;17.85;6.70;;;;;;;12.26;70.87;93459.47;5092318;28;20161;-40
2021/06/13 00:30:43;;;;;;;21.00;8.57;;;;;;;12.19;71.27;93463.03;5091706;28;20529;-45
2021/06/13 00:33:09;;;;;;;15.57;6.05;;;;;;;12.02;71.86;93463.63;5091411;28;20106;-42
2021/06/13 00:35:35;;;;;;;11.57;5.28;;;;;;;11.92;72.34;93451.66;5092468;28;20019;-41
2021/06/13 00:38:01;;;;;;;10.20;3.72;;;;;;;11.83;72.22;93443.19;5092393;28;20047;-41
2021/06/13 00:40:28;;;;;;;4.70;2.00;;;;;;;11.83;71.89;93446.69;5091776;28;20564;-42
2021/06/13 00:42:54;;;;;;;5.70;2.63;;;;;;;11.69;72.27;93453.75;5092214;28;20031;-40
2021/06/13 00:45:20;;;;;;;3.33;1.75;;;;;;;11.68;72.69;93457.81;5092088;28;20020;-41
2021/06/13 00:47:47;;;;;;;2.17;1.85;;;;;;;11.79;72.55;93453.91;5091929;28;20400;-40
2021/06/13 00:50:14;;;;;;;3.42;2.38;;;;;;;11.59;72.81;93454.81;5090555;28;20049;-41
2021/06/13 00:52:40;;;;;;;2.28;1.45;;;;;;;11.48;73.55;93444.88;5092318;28;20024;-42
2021/06/13 00:55:06;;;;;;;2.33;1.65;;;;;;;11.48;72.97;93444.88;5091936;28;20020;-40
2021/06/13 00:57:31;;;;;;;1.40;1.30;;;;;;;11.46;73.33;93439.19;5092102;28;20024;-41
2021/06/13 00:59:57;;;;;;;4.05;1.95;;;;;;;11.63;72.76;93444.16;5090993;28;20089;-41
2021/06/13 01:02:22;;;;;;;2.47;1.67;;;;;;;11.54;72.73;93450.97;5092133;28;20031;-40
2021/06/13 01:04:48;;;;;;;1.60;1.27;;;;;;;11.63;71.63;93455.94;5091409;28;20020;-40
2021/06/13 01:07:28;;;;;;;2.13;1.27;;;;;;;11.65;71.50;93449.84;5091054;28;20024;-41
2021/06/13 01:09:58;;;;;;;1.15;0.88;;;;;;;11.46;71.77;93444.72;5090136;28;20063;-41
2021/06/13 01:12:43;;;;;;;1.85;1.10;;;;;;;11.28;72.65;93448.59;5086622;28;20419;-42
2021/06/13 01:15:16;;;;;;;3.60;2.67;;;;;;;11.18;73.28;93434.59;5089259;28;20573;-41
2021/06/13 01:17:46;;;;;;;2.47;1.98;;;;;;;11.31;73.01;93453.75;5090313;28;20024;-43
2021/06/13 01:20:23;;;;;;;1.80;1.70;;;;;;;11.32;73.34;93448.97;5089895;28;20032;-42
2021/06/13 01:23:20;;;;;;;2.28;1.60;;;;;;;11.26;73.85;93440.13;5090537;28;20508;-44
2021/06/13 01:25:48;;;;;;;6.32;1.48;;;;;;;11.14;74.40;93433.47;5090786;28;20090;-42
2021/06/13 01:28:41;;;;;;;1.88;1.67;;;;;;;11.19;73.78;93435.34;5091287;28;20040;-40
2021/06/13 01:31:07;;;;;;;2.10;1.60;;;;;;;11.27;73.26;93433.31;5091432;28;20020;-40
2021/06/13 01:33:34;;;;;;;1.02;1.00;;;;;;;11.19;72.51;93413.97;5091276;28;20024;-40
2021/06/13 01:36:01;;;;;;;1.00;1.00;;;;;;;11.28;71.54;93432.03;5090245;28;20028;-41
2021/06/13 01:38:27;;;;;;;0.98;0.90;;;;;;;11.24;72.36;93445.47;5090079;28;20085;-40
2021/06/13 01:40:53;;;;;;;1.02;0.98;;;;;;;11.22;72.65;93445.28;5090042;28;20024;-39
2021/06/13 01:43:22;;;;;;;2.08;1.33;;;;;;;11.03;72.41;93426.31;5090043;28;20050;-39
2021/06/13 01:45:49;;;;;;;1.38;1.27;;;;;;;11.21;71.76;93435.53;5090799;28;20088;-43
2021/06/13 01:48:15;;;;;;;1.55;1.23;;;;;;;11.11;72.69;93437.38;5089663;28;20071;-40
2021/06/13 01:50:41;;;;;;;2.05;0.93;;;;;;;11.08;72.90;93432.94;5090569;28;20051;-40
2021/06/13 01:53:09;;;;;;;1.33;1.23;;;;;;;11.03;73.66;93437.34;5091012;28;20023;-39
2021/06/13 01:55:36;;;;;;;3.72;1.50;;;;;;;11.05;74.49;93437.53;5090517;28;20027;-39
2021/06/13 01:58:03;;;;;;;2.60;1.52;;;;;;;10.96;74.53;93440.84;5089712;28;20465;-39
2021/06/13 02:00:28;;;;;;;2.58;1.67;;;;;;;10.95;75.50;93442.16;5090913;28;20028;-39
2021/06/13 02:02:54;;;;;;;6.72;1.83;;;;;;;11.12;75.23;93442.34;5089427;28;20074;-39
2021/06/13 02:05:22;;;;;;;2.30;1.90;;;;;;;11.04;75.67;93438.09;5089534;28;20043;-39
2021/06/13 02:07:47;;;;;;;4.53;1.75;;;;;;;10.94;77.63;93437.91;5083865;28;20107;-39
2021/06/13 02:10:16;;;;;;;4.72;2.30;;;;;;;11.13;76.71;93435.50;5068951;28;20024;-39
2021/06/13 02:12:43;;;;;;;5.72;2.25;;;;;;;10.97;76.58;93427.78;5069843;28;20039;-39
2021/06/13 02:15:10;;;;;;;2.85;2.38;;;;;;;11.05;76.67;93439.56;5068720;28;20060;-39
2021/06/13 02:17:37;;;;;;;2.45;1.90;;;;;;;11.22;76.62;93432.19;5068822;28;20032;-39
2021/06/13 02:20:07;;;;;;;2.20;1.80;;;;;;;11.31;76.28;93425.38;5070111;28;20024;-39
2021/06/13 02:22:34;;;;;;;2.55;1.58;;;;;;;11.30;76.53;93421.16;5077004;28;20031;-39
2021/06/13 02:24:59;;;;;;;2.00;1.60;;;;;;;11.37;76.57;93418.38;5088086;28;20040;-39
2021/06/13 02:27:27;;;;;;;1.42;1.30;;;;;;;11.40;76.90;93424.81;5089738;28;20088;-39
2021/06/13 02:29:52;;;;;;;1.88;1.30;;;;;;;11.43;76.11;93409.91;5088674;28;20024;-40
2021/06/13 02:32:18;;;;;;;1.15;1.02;;;;;;;11.59;75.30;93422.38;5089906;28;20084;-40
2021/06/13 02:34:45;;;;;;;1.30;1.20;;;;;;;11.63;74.49;93411.69;5090150;28;20015;-40
2021/06/13 02:37:11;;;;;;;1.90;1.10;;;;;;;11.70;74.45;93413.72;5088921;28;20028;-40
2021/06/13 02:39:37;;;;;;;2.22;1.80;;;;;;;11.67;75.12;93419.66;5088634;28;20023;-41
2021/06/13 02:42:02;;;;;;;1.50;1.40;;;;;;;11.79;74.68;93418.69;5089850;28;20055;-40
2021/06/13 02:44:28;;;;;;;1.25;1.13;;;;;;;11.87;74.32;93413.13;5089997;28;20040;-40
2021/06/13 02:46:53;;;;;;;1.50;1.40;;;;;;;11.65;75.31;93408.38;5089564;28;20027;-39
2021/06/13 02:49:19;;;;;;;1.40;1.00;;;;;;;11.69;75.77;93412.28;5089394;28;20023;-38
2021/06/13 02:52:08;;;;;;;1.70;1.35;;;;;;;11.75;75.44;93415.56;5089934;28;20404;-38
2021/06/13 02:54:35;;;;;;;1.70;1.20;;;;;;;11.84;74.85;93408.72;5088735;28;20020;-42
2021/06/13 02:57:03;;;;;;;1.05;0.90;;;;;;;11.92;75.51;93418.47;5088525;28;20028;-41
2021/06/13 02:59:44;;;;;;;1.88;1.30;;;;;;;11.84;76.36;93411.47;5089699;28;20500;-41
2021/06/13 03:02:13;;;;;;;4.72;1.48;;;;;;;11.82;77.03;93414.81;5089509;28;20032;-41
2021/06/13 03:04:42;;;;;;;1.88;1.42;;;;;;;11.99;76.12;93408.66;5079246;28;20056;-41
2021/06/13 03:07:07;;;;;;;6.10;1.77;;;;;;;11.92;76.00;93399.09;5068433;28;20055;-41
2021/06/13 03:09:35;;;;;;;1.58;1.30;;;;;;;12.00;76.05;93408.09;5068131;28;20024;-40
2021/06/13 03:12:02;;;;;;;2.47;1.77;;;;;;;11.98;76.34;93418.25;5080243;28;20107;-41
2021/06/13 03:14:31;;;;;;;3.00;2.25;;;;;;;12.04;76.77;93408.44;5089402;28;20039;-41
2021/06/13 03:16:57;;;;;;;2.25;1.73;;;;;;;12.12;76.95;93413.97;5088613;28;20028;-40
2021/06/13 03:19:23;;;;;;;2.08;1.60;;;;;;;12.19;76.85;93415.97;5089686;28;20458;-43
2021/06/13 03:21:49;;;;;;;2.80;1.67;;;;;;;12.02;77.68;93413.06;5088394;28;20032;-44
2021/06/13 03:24:16;;;;;;;2.42;1.98;;;;;;;12.09;77.79;93407.50;5088710;28;20036;-39
2021/06/13 03:26:42;;;;;;;1.45;1.35;;;;;;;11.99;78.52;93403.88;5087172;28;20040;-40
2021/06/13 03:29:08;;;;;;;2.85;1.98;;;;;;;11.91;78.71;93396.91;5088141;28;20032;-41
2021/06/13 03:31:33;;;;;;;1.60;1.50;;;;;;;12.05;78.94;93403.66;5088050;28;20035;-40
2021/06/13 03:33:59;;;;;;;2.97;1.63;;;;;;;12.16;78.96;93397.72;5089264;28;20020;-41
2021/06/13 03:36:25;;;;;;;9.38;1.80;;;;;;;12.27;78.75;93388.25;5090575;28;20032;-41
2021/06/13 03:38:52;;;;;;;2.33;1.92;;;;;;;12.33;79.13;93394.31;5082392;28;20402;-41
2021/06/13 03:41:21;;;;;;;2.50;2.13;;;;;;;12.45;79.28;93404.38;5072158;28;20039;-40
2021/06/13 03:43:48;;;;;;;6.00;2.78;;;;;;;12.44;79.63;93394.63;5073301;28;20409;-41
2021/06/13 03:46:13;;;;;;;3.15;1.92;;;;;;;12.55;79.01;93402.50;5072634;28;20517;-40
2021/06/13 03:48:40;;;;;;;2.88;2.55;;;;;;;12.50;79.91;93400.66;5071581;28;20116;-40
2021/06/13 03:51:06;;;;;;;2.50;1.20;;;;;;;12.57;79.38;93394.34;5071431;28;20497;-40
2021/06/13 03:53:32;;;;;;;2.72;1.45;;;;;;;12.57;78.72;93396.38;5071179;28;20051;-41
2021/06/13 03:56:04;;;;;;;3.35;2.10;;;;;;;12.71;78.87;93397.59;5071561;28;20129;-41
2021/06/13 03:58:31;;;;;;;2.97;1.90;;;;;;;12.70;78.89;93396.88;5071695;28;20121;-42
2021/06/13 04:00:57;;;;;;;1.60;1.50;;;;;;;12.87;78.54;93390.66;5082135;28;20440;-41
2021/06/13 04:03:24;;;;;;;3.70;1.67;;;;;;;13.03;78.13;93392.00;5091572;28;20024;-41
2021/06/13 04:05:50;;;;;;;1.40;1.30;;;;;;;13.17;78.04;93392.47;5091379;28;20495;-42
2021/06/13 04:08:15;;;;;;;2.25;1.90;;;;;;;13.23;77.94;93393.00;5091611;28;20031;-41
2021/06/13 04:10:46;;;;;;;11.13;2.80;;;;;;;13.28;77.45;93398.28;5090416;28;20393;-41
2021/06/13 04:13:13;;;;;;;3.88;2.15;;;;;;;13.32;76.78;93392.38;5071532;28;20033;-42
2021/06/13 04:15:39;;;;;;;6.22;2.40;;;;;;;13.20;77.08;93378.22;5071145;28;20091;-42
2021/06/13 04:18:05;;;;;;;3.45;2.30;;;;;;;13.38;76.82;93396.34;5071441;28;20024;-42
2021/06/13 04:20:31;;;;;;;1.88;1.30;;;;;;;13.37;76.67;93392.13;5071297;28;20027;-41
2021/06/13 04:22:57;;;;;;;4.22;2.17;;;;;;;13.40;76.34;93391.00;5077175;28;20016;-42
2021/06/13 04:25:23;;;;;;;2.58;1.92;;;;;;;13.44;76.31;93385.03;5091000;28;20032;-42
2021/06/13 04:27:48;;;;;;;2.35;1.80;;;;;;;13.41;76.51;93386.91;5091200;28;20035;-42
2021/06/13 04:30:14;;;;;;;3.70;1.95;;;;;;;13.34;77.24;93390.47;5090881;28;20056;-41
2021/06/13 04:32:39;;;;;;;1.75;1.58;;;;;;;13.46;77.31;93399.06;5092360;28;20035;-42
2021/06/13 04:35:05;;;;;;;3.60;2.53;;;;;;;13.54;77.65;93392.13;5092436;28;20023;-42
2021/06/13 04:37:31;;;;;;;2.95;1.50;;;;;;;13.53;77.60;93389.94;5092277;28;20028;-42
2021/06/13 04:39:56;;;;;;;1.63;1.27;;;;;;;13.63;77.34;93399.81;5091012;28;20080;-41
2021/06/13 04:42:22;;;;;;;2.17;1.73;;;;;;;13.61;77.78;93390.59;5092063;28;20065;-42
2021/06/13 04:44:47;;;;;;;5.13;2.45;;;;;;;13.80;77.36;93392.78;5092111;28;20031;-41
2021/06/13 04:47:13;;;;;;;3.63;2.30;;;;;;;13.85;77.25;93387.03;5091708;28;20038;-41
2021/06/13 04:49:39;;;;;;;2.05;1.85;;;;;;;13.98;77.44;93374.84;5091973;28;20055;-41
2021/06/13 04:52:06;;;;;;;3.67;2.17;;;;;;;13.98;77.62;93378.34;5090860;28;20035;-41
2021/06/13 04:54:42;;;;;;;2.47;2.08;;;;;;;14.15;78.11;93381.13;5092090;28;20055;-40
2021/06/13 04:57:14;;;;;;;3.42;2.30;;;;;;;14.31;78.04;93374.06;5081596;28;20876;-40
2021/06/13 04:59:39;;;;;;;4.80;3.00;;;;;;;14.46;78.33;93370.38;5071976;28;20021;-40
2021/06/13 05:02:04;;;;;;;6.38;2.60;;;;;;;14.64;77.57;93377.34;5071453;28;20471;-39
2021/06/13 05:04:30;;;;;;;3.85;2.85;;;;;;;14.81;77.07;93380.06;5071509;28;20020;-39
2021/06/13 05:06:56;;;;;;;5.65;2.90;;;;;;;14.90;76.25;93378.66;5071383;28;20035;-41
2021/06/13 05:09:22;;;;;;;3.88;2.80;;;;;;;15.06;76.04;93383.41;5071134;28;20021;-40
2021/06/13 05:11:47;;;;;;;4.72;2.97;;;;;;;15.28;75.84;93383.59;5071344;28;20028;-39
2021/06/13 05:14:12;;;;;;;4.25;2.83;;;;;;;15.47;75.35;93389.97;5070628;28;20517;-39
2021/06/13 05:16:41;;;;;;;61.83;41.35;;;;;;;15.52;75.09;93391.75;5070973;28;20424;-39
2021/06/13 05:19:06;;;;;;;40.03;38.22;;;;;;;15.49;74.43;93401.25;5071404;28;20017;-39
2021/06/13 05:21:32;;;;;;;289.25;236.82;;;;;;;15.44;74.64;93384.88;5070934;28;20474;-39
2021/06/13 05:24:00;;;;;;;1999.90;999.90;;;;;;;15.43;74.89;93389.69;5085472;28;20109;-39
2021/06/13 05:26:26;;;;;;;1999.90;999.90;;;;;;;15.56;73.93;93386.50;5090550;28;20036;-38
2021/06/13 05:28:52;;;;;;;138.88;123.97;;;;;;;15.59;73.95;93387.38;5089689;28;20024;-38
2021/06/13 05:31:17;;;;;;;1999.90;999.90;;;;;;;15.52;74.27;93385.47;5089639;28;20648;-39
2021/06/13 05:33:43;;;;;;;1999.90;999.90;;;;;;;15.60;74.62;93381.22;5089231;28;20020;-39
2021/06/13 05:36:08;;;;;;;1999.90;999.90;;;;;;;15.55;74.60;93396.16;5087867;28;20027;-39
2021/06/13 05:38:34;;;;;;;1999.90;999.90;;;;;;;15.53;74.52;93384.88;5090148;28;20043;-39
2021/06/13 05:40:59;;;;;;;1999.90;999.90;;;;;;;15.59;74.09;93385.31;5090405;28;20047;-39
2021/06/13 05:43:25;;;;;;;110.30;87.07;;;;;;;15.78;73.67;93390.19;5091075;28;20077;-39
2021/06/13 05:45:50;;;;;;;1999.90;999.90;;;;;;;15.88;73.43;93393.72;5091097;28;20408;-39
2021/06/13 05:48:16;;;;;;;1999.90;999.90;;;;;;;15.94;73.66;93392.09;5090581;28;20397;-40
2021/06/13 05:50:42;;;;;;;1999.90;999.90;;;;;;;15.99;73.14;93393.13;5090770;28;20031;-39
2021/06/13 05:53:08;;;;;;;1999.90;999.90;;;;;;;16.06;73.49;93397.84;5082182;28;20082;-38
2021/06/13 05:55:34;;;;;;;1999.90;999.90;;;;;;;16.13;72.39;93393.44;5070091;28;20531;-39
2021/06/13 05:57:59;;;;;;;1999.90;999.90;;;;;;;16.09;72.46;93398.72;5069641;28;20024;-39
2021/06/13 06:00:27;;;;;;;1999.90;999.90;;;;;;;16.17;71.92;93393.72;5070026;28;20090;-40
2021/06/13 06:02:53;;;;;;;1999.90;999.90;;;;;;;16.10;72.34;93389.75;5070160;28;20032;-39
2021/06/13 06:05:20;;;;;;;1999.90;999.90;;;;;;;16.19;72.77;93396.66;5070160;28;20024;-39
2021/06/13 06:07:45;;;;;;;1999.90;999.90;;;;;;;16.23;72.46;93388.59;5069823;28;20052;-41
2021/06/13 06:10:12;;;;;;;1999.90;999.90;;;;;;;16.39;72.89;93390.50;5069987;28;20051;-42
2021/06/13 06:12:38;;;;;;;1999.90;999.90;;;;;;;16.49;72.73;93382.09;5085780;28;20061;-40
2021/06/13 06:15:06;;;;;;;1999.90;999.90;;;;;;;16.61;71.63;93380.94;5090061;28;20020;-40
2021/06/13 06:17:31;;;;;;;1999.90;999.90;;;;;;;16.56;70.75;93376.41;5090412;28;20028;-41
2021/06/13 06:19:57;;;;;;;1999.90;999.90;;;;;;;16.53;71.20;93374.06;5093781;28;20543;-42
2021/06/13 06:22:22;;;;;;;1999.90;999.90;;;;;;;16.63;71.07;93360.84;5089477;28;20020;-41
2021/06/13 06:24:48;;;;;;;1999.90;999.90;;;;;;;16.70;71.46;93365.50;5089585;28;20056;-41
2021/06/13 06:27:13;;;;;;;1999.90;999.90;;;;;;;16.85;71.89;93361.66;5088765;28;20385;-41
2021/06/13 06:29:39;;;;;;;1999.90;999.90;;;;;;;16.88;71.68;93352.09;5089530;28;20092;-41
2021/06/13 06:32:06;;;;;;;1999.90;999.90;;;;;;;16.94;72.01;93350.47;5089745;28;20435;-44
2021/06/13 06:34:32;;;;;;;1999.90;999.90;;;;;;;17.16;71.49;93351.25;5089629;28;20020;-42
2021/06/13 06:36:57;;;;;;;1999.90;999.90;;;;;;;17.28;70.31;93347.22;5089654;28;20077;-41
2021/06/13 06:39:23;;;;;;;1999.90;999.90;;;;;;;17.37;70.44;93343.66;5089860;28;20069;-41
2021/06/13 06:41:49;;;;;;;1999.90;999.90;;;;;;;17.50;69.35;93350.78;5089618;28;20049;-40
2021/06/13 06:44:14;;;;;;;1999.90;999.90;;;;;;;17.49;70.16;93354.91;5089796;28;20023;-41
2021/06/13 06:46:40;;;;;;;1999.90;999.90;;;;;;;17.50;69.55;93345.22;5089797;28;20031;-40
2021/06/13 06:49:06;;;;;;;1999.90;999.90;;;;;;;17.52;69.79;93355.81;5086961;28;20539;-41
2021/06/13 06:51:33;;;;;;;1999.90;999.90;;;;;;;17.51;70.41;93354.31;5081492;28;20028;-41
2021/06/13 06:53:58;;;;;;;1999.90;999.90;;;;;;;17.55;70.21;93349.00;5077644;28;20036;-41
2021/06/13 06:56:24;;;;;;;1999.90;999.90;;;;;;;17.72;70.53;93343.91;5076442;28;20029;-41
2021/06/13 06:58:51;;;;;;;1999.90;999.90;;;;;;;17.76;70.50;93332.28;5075569;28;20680;-41
2021/06/13 07:01:16;;;;;;;1999.90;999.90;;;;;;;18.05;69.06;93341.91;5077686;28;20030;-42
2021/06/13 07:03:42;;;;;;;1999.90;999.90;;;;;;;18.16;68.66;93341.22;5075538;28;20020;-42
2021/06/13 07:06:07;;;;;;;1999.90;999.90;;;;;;;18.29;69.75;93339.19;5076708;28;20024;-41
2021/06/13 07:08:33;;;;;;;1999.90;999.90;;;;;;;18.52;68.36;93336.47;5076575;28;20030;-40
2021/06/13 07:10:58;;;;;;;1999.90;999.90;;;;;;;18.62;67.17;93325.94;5077614;28;20031;-40
2021/06/13 07:13:24;;;;;;;1999.90;999.90;;;;;;;18.91;66.81;93332.69;5066877;28;20414;-41
2021/06/13 07:15:49;;;;;;;1999.90;999.90;;;;;;;19.10;65.92;93325.41;5066879;28;20540;-40
2021/06/13 07:18:15;;;;;;;1999.90;999.90;;;;;;;19.40;65.19;93330.03;5078835;28;20024;-37
2021/06/13 07:20:41;;;;;;;1999.90;999.90;;;;;;;19.61;62.73;93329.91;5087259;28;20032;-38
2021/06/13 07:23:06;;;;;;;1999.90;999.90;;;;;;;19.84;63.11;93329.13;5090073;28;20015;-40
2021/06/13 07:25:32;;;;;;;1999.90;999.90;;;;;;;20.29;61.72;93327.53;5086686;28;20032;-40
2021/06/13 07:27:57;;;;;;;1999.90;999.90;;;;;;;20.84;60.53;93320.03;5087055;28;20051;-41
2021/06/13 07:30:23;;;;;;;1999.90;999.90;;;;;;;21.20;58.37;93322.03;5086939;28;20019;-40
2021/06/13 07:32:49;;;;;;;1999.90;999.90;;;;;;;21.72;57.85;93318.41;5087474;28;20024;-42
2021/06/13 07:35:15;;;;;;;1999.90;999.90;;;;;;;22.23;55.79;93318.84;5086901;28;20028;-39
2021/06/13 07:37:43;;;;;;;1999.90;999.90;;;;;;;22.65;53.94;93326.53;5086867;28;20020;-39
2021/06/13 07:40:09;;;;;;;1999.90;999.90;;;;;;;23.15;53.11;93322.53;5086350;28;20042;-41
2021/06/13 07:42:35;;;;;;;1999.90;999.90;;;;;;;23.53;52.70;93315.81;5086830;28;20034;-39
2021/06/13 07:45:01;;;;;;;1999.90;999.90;;;;;;;24.26;50.77;93313.28;5093726;28;20032;-39
2021/06/13 07:47:29;;;;;;;1999.90;999.90;;;;;;;25.21;48.32;93309.34;5085889;28;20054;-40
2021/06/13 07:49:54;;;;;;;1999.90;999.90;;;;;;;25.64;44.59;93303.16;5082821;28;20115;-42
2021/06/13 07:52:20;;;;;;;1999.90;999.90;;;;;;;25.18;46.90;93314.19;5084088;28;20028;-40
2021/06/13 07:54:45;;;;;;;1999.90;999.90;;;;;;;25.04;47.52;93324.94;5075116;28;20020;-41
2021/06/13 07:57:11;;;;;;;1999.90;999.90;;;;;;;24.56;47.86;93317.38;5062115;28;20020;-40
2021/06/13 07:59:36;;;;;;;1999.90;999.90;;;;;;;23.93;48.21;93309.09;5071300;28;20024;-41
2021/06/13 08:02:04;;;;;;;1999.90;999.90;;;;;;;23.15;51.53;93308.44;5091574;28;20024;-39
2021/06/13 08:04:35;;;;;;;1999.90;999.90;;;;;;;22.66;53.03;93313.19;5067883;28;20035;-41
2021/06/13 08:07:00;;;;;;;1999.90;999.90;;;;;;;22.10;54.79;93317.53;5069179;28;20047;-39
2021/06/13 08:09:26;;;;;;;1999.90;999.90;;;;;;;21.68;54.54;93318.91;5086712;28;20055;-39
2021/06/13 08:11:51;;;;;;;1999.90;999.90;;;;;;;21.26;55.18;93322.34;5086438;28;20394;-39
2021/06/13 08:14:17;;;;;;;1999.90;999.90;;;;;;;21.12;56.54;93324.38;5086794;28;20031;-37
2021/06/13 08:16:42;;;;;;;1999.90;999.90;;;;;;;21.07;56.89;93315.00;5087003;28;20412;-38
2021/06/13 08:19:08;;;;;;;1999.90;999.90;;;;;;;20.98;56.94;93326.44;5087095;28;20035;-39
2021/06/13 08:21:35;;;;;;;1999.90;999.90;;;;;;;20.80;57.73;93320.56;5087917;28;20031;-38
2021/06/13 08:24:02;;;;;;;1999.90;999.90;;;;;;;20.54;58.93;93313.50;5089581;28;20131;-40
2021/06/13 08:26:27;;;;;;;1999.90;999.90;;;;;;;20.40;59.49;93318.31;5090041;28;20505;-38
2021/06/13 08:28:53;;;;;;;1999.90;999.90;;;;;;;20.38;59.91;93316.16;5099589;28;20028;-40
2021/06/13 08:31:22;;;;;;;1999.90;999.90;;;;;;;20.25;59.98;93319.63;5110698;28;20027;-39
2021/06/13 08:33:47;;;;;;;1999.90;999.90;;;;;;;20.23;60.20;93313.91;5110514;28;20027;-38
2021/06/13 08:36:13;;;;;;;1999.90;999.90;;;;;;;20.15;60.64;93315.50;5088107;28;20032;-38
2021/06/13 08:38:38;;;;;;;1999.90;999.90;;;;;;;20.18;60.64;93309.38;5078216;28;20025;-39
2021/06/13 08:41:04;;;;;;;1999.90;999.90;;;;;;;20.19;62.39;93315.72;5079745;28;20020;-41
2021/06/13 08:43:29;;;;;;;1999.90;999.90;;;;;;;20.55;62.01;93305.84;5077971;28;20473;-41
2021/06/13 08:45:57;;;;;;;1999.90;999.90;;;;;;;20.90;60.30;93307.06;5078186;28;20012;-41
2021/06/13 08:48:29;;;;;;;1999.90;999.90;;;;;;;20.98;59.97;93306.78;5079227;28;20103;-40
2021/06/13 08:50:55;;;;;;;1999.90;999.90;;;;;;;20.97;59.36;93308.13;5076128;28;20020;-40
2021/06/13 08:53:21;;;;;;;1999.90;999.90;;;;;;;21.11;59.48;93317.31;5080490;28;20026;-39
2021/06/13 08:55:47;;;;;;;1999.90;999.90;;;;;;;21.19;58.77;93314.22;5077495;28;20028;-39
2021/06/13 08:58:14;;;;;;;1999.90;999.90;;;;;;;21.30;57.77;93310.56;5076223;28;20633;-39
2021/06/13 09:00:41;;;;;;;1999.90;999.90;;;;;;;21.10;58.24;93308.16;5079698;28;20765;-41
2021/06/13 09:03:07;;;;;;;1999.90;999.90;;;;;;;21.20;57.68;93304.44;5078077;28;20024;-39
2021/06/13 09:05:33;;;;;;;1999.90;999.90;;;;;;;21.30;57.34;93286.03;5082626;28;20091;-39
2021/06/13 09:08:04;;;;;;;1999.90;999.90;;;;;;;21.83;55.54;93301.44;5076622;28;20127;-39
2021/06/13 09:10:31;;;;;;;1999.90;999.90;;;;;;;22.38;55.20;93299.22;5074896;28;20475;-38
2021/06/13 09:13:17;;;;;;;1999.90;999.90;;;;;;;22.97;53.06;93290.72;5077578;28;20115;-42
2021/06/13 09:15:52;;;;;;;1999.90;999.90;;;;;;;22.38;53.75;93295.66;5079424;28;20043;-41
2021/06/13 09:18:49;;;;;;;1999.90;999.90;;;;;;;22.25;54.85;93299.97;5077595;28;20066;-40
2021/06/13 09:21:18;;;;;;;1999.90;999.90;;;;;;;21.86;55.95;93297.38;5060318;28;20039;-41
2021/06/13 09:23:43;;;;;;;1999.90;999.90;;;;;;;21.72;56.60;93304.34;5078535;28;20024;-40
2021/06/13 09:26:16;;;;;;;1999.90;999.90;;;;;;;21.12;57.87;93299.84;5078367;28;20051;-41
2021/06/13 09:28:43;;;;;;;1999.90;999.90;;;;;;;20.86;58.88;93289.28;5077874;28;20031;-41
2021/06/13 09:31:26;;;;;;;1999.90;999.90;;;;;;;20.56;59.56;93299.59;5079591;28;20109;-42
2021/06/13 09:33:54;;;;;;;1999.90;999.90;;;;;;;20.10;60.94;93296.97;5078613;28;20020;-43
2021/06/13 09:36:23;;;;;;;1999.90;999.90;;;;;;;19.92;61.58;93293.91;5077167;28;20021;-43
2021/06/13 09:38:59;;;;;;;1999.90;999.90;;;;;;;19.75;62.20;93293.56;5078860;28;20028;-42
2021/06/13 09:41:24;;;;;;;1999.90;999.90;;;;;;;19.70;62.44;93295.41;5077422;28;20028;-41
2021/06/13 09:43:53;;;;;;;1999.90;999.90;;;;;;;19.53;63.97;93293.72;5077543;28;20637;-43
2021/06/13 09:46:19;;;;;;;1999.90;999.90;;;;;;;19.43;65.80;93309.94;5077513;28;20024;-42
2021/06/13 09:48:48;;;;;;;1999.90;999.90;;;;;;;19.35;66.59;93305.94;5077562;28;20464;-40
2021/06/13 09:51:19;;;;;;;1999.90;999.90;;;;;;;19.36;66.79;93291.31;5076119;28;20024;-42
2021/06/13 09:53:49;;;;;;;1999.90;999.90;;;;;;;19.46;66.73;93302.41;5077083;28;20028;-41
2021/06/13 09:56:16;;;;;;;1999.90;999.90;;;;;;;19.38;66.02;93299.84;5078587;28;20024;-40
2021/06/13 09:58:48;;;;;;;1999.90;999.90;;;;;;;19.44;66.92;93293.88;5076000;28;20043;-41
2021/06/13 10:01:13;;;;;;;1999.90;999.90;;;;;;;19.38;66.37;93297.03;5075992;28;20028;-38
2021/06/13 10:03:40;;;;;;;1999.90;999.90;;;;;;;19.42;66.73;93290.97;5077823;28;20481;-40
2021/06/13 10:06:07;;;;;;;1999.90;999.90;;;;;;;19.42;66.00;93305.69;5075995;28;20507;-40
2021/06/13 10:08:34;;;;;;;1999.90;999.90;;;;;;;19.49;65.32;93293.50;5075516;28;20036;-39
2021/06/13 10:11:01;;;;;;;1999.90;999.90;;;;;;;19.43;65.80;93301.53;5076213;28;20036;-40
2021/06/13 10:13:50;;;;;;;1999.90;999.90;;;;;;;19.46;66.07;93303.13;5075981;28;20443;-40
2021/06/13 10:16:32;;;;;;;1999.90;999.90;;;;;;;19.59;65.92;93293.38;5076366;28;20027;-40
2021/06/13 10:18:59;;;;;;;1999.90;999.90;;;;;;;19.63;66.89;93299.94;5076407;28;20020;-39
2021/06/13 10:21:35;;;;;;;1999.90;999.90;;;;;;;19.62;67.06;93306.16;5076523;28;20028;-39
2021/06/13 10:24:03;;;;;;;1999.90;999.90;;;;;;;19.66;67.02;93318.31;5077613;28;20024;-39
2021/06/13 10:26:29;;;;;;;1999.90;999.90;;;;;;;19.54;67.15;93305.66;5076900;28;20639;-39
2021/06/13 10:28:54;;;;;;;1999.90;999.90;;;;;;;19.37;68.51;93312.38;5074855;28;20021;-39
2021/06/13 10:31:20;;;;;;;1999.90;999.90;;;;;;;19.20;69.09;93331.59;5076084;28;20409;-38
2021/06/13 10:33:46;;;;;;;1999.90;999.90;;;;;;;19.04;70.00;93336.94;5075567;28;20038;-40
2021/06/13 10:36:12;;;;;;;1999.90;999.90;;;;;;;18.77;70.72;93325.50;5077702;28;20090;-39
2021/06/13 10:38:38;;;;;;;1999.90;999.90;;;;;;;18.59;72.30;93335.53;5077151;28;20146;-39
2021/06/13 10:41:04;;;;;;;1999.90;999.90;;;;;;;18.53;72.67;93335.91;5077805;28;20130;-39
2021/06/13 10:43:30;;;;;;;1999.90;999.90;;;;;;;18.47;73.42;93340.38;5072770;28;20073;-41
2021/06/13 10:46:09;;;;;;;1999.90;999.90;;;;;;;18.31;74.26;93342.84;5072254;28;20027;-39
2021/06/13 10:49:02;;;;;;;1999.90;999.90;;;;;;;18.40;73.62;93341.28;5074279;28;20579;-41
2021/06/13 10:51:31;;;;;;;1999.90;999.90;;;;;;;18.47;73.77;93334.78;5075116;28;20048;-41
2021/06/13 10:54:18;;;;;;;1999.90;999.90;;;;;;;18.55;74.16;93336.03;5075144;28;20078;-39
2021/06/13 10:56:44;;;;;;;1999.90;999.90;;;;;;;18.61;73.19;93339.19;5076273;28;20024;-39
2021/06/13 10:59:17;;;;;;;1999.90;999.90;;;;;;;18.55;73.90;93341.63;5071936;28;20040;-39
2021/06/13 11:02:11;;;;;;;1999.90;999.90;;;;;;;18.58;74.04;93343.19;5075753;28;20021;-40
2021/06/13 11:04:42;;;;;;;1999.90;999.90;;;;;;;18.57;73.51;93332.63;5075092;28;20028;-40
2021/06/13 11:07:08;;;;;;;1999.90;999.90;;;;;;;18.40;73.47;93332.91;5075068;28;20825;-39
2021/06/13 11:10:07;;;;;;;1999.90;999.90;;;;;;;18.40;74.79;93330.09;5076962;28;20027;-41
2021/06/13 11:12:49;;;;;;;1999.90;999.90;;;;;;;18.45;74.13;93321.41;5078837;28;20103;-40
2021/06/13 11:15:39;;;;;;;1999.90;999.90;;;;;;;18.30;74.41;93310.63;5076807;28;20031;-41